Sylvan Lake, Canada
Current Conditions -  °F | °C
As of 7:00 AM on Monday 26 Jan 2015 (Local Time) from CYQF Reporting Station
Broken Clouds Broken Clouds  
Wind Chill: 20°   Ceiling: 22000
Heat Index: 28°   Visibility: 15mi
Dew Point: 25°   Wind: 9mph
Humidity: 86%   Direction: 200°SSW
Pressure: 29.83"   Gusts: NA
Location:  52.31°N, 114.09°W
Report Text: CYQF 261400Z 20008KT 15SM BKN220 M02/M04 A2983 RMK CI5 SLP140
Loading
Personal Weather Stations






























Interactive Weather Map New forecast layout! Learn more

10-Day Weather Forecast

Advertisements
Track Severe Weather on mobile